sensor_id;sensor_type;location;lat;lon;timestamp;temperature;humidity
38488;DHT22;57384;51.986;4.458;2024-02-14T00:02:13;9.70;88.30
38488;DHT22;57384;51.986;4.458;2024-02-14T00:04:58;9.70;88.30
38488;DHT22;57384;51.986;4.458;2024-02-14T00:07:43;9.70;88.30
38488;DHT22;57384;51.986;4.458;2024-02-14T00:10:27;9.80;88.40
38488;DHT22;57384;51.986;4.458;2024-02-14T00:13:11;9.70;88.40
38488;DHT22;57384;51.986;4.458;2024-02-14T00:15:57;9.80;88.40
38488;DHT22;57384;51.986;4.458;2024-02-14T00:18:41;9.80;88.50
38488;DHT22;57384;51.986;4.458;2024-02-14T00:21:25;9.80;88.50
38488;DHT22;57384;51.986;4.458;2024-02-14T00:24:09;9.80;88.60
38488;DHT22;57384;51.986;4.458;2024-02-14T00:26:53;9.80;88.50
38488;DHT22;57384;51.986;4.458;2024-02-14T00:29:37;9.80;88.60
38488;DHT22;57384;51.986;4.458;2024-02-14T00:32:22;9.90;88.60
38488;DHT22;57384;51.986;4.458;2024-02-14T00:35:06;9.90;88.70
38488;DHT22;57384;51.986;4.458;2024-02-14T00:37:50;9.90;88.70
38488;DHT22;57384;51.986;4.458;2024-02-14T00:40:34;9.90;88.70
38488;DHT22;57384;51.986;4.458;2024-02-14T00:43:19;9.90;88.70
38488;DHT22;57384;51.986;4.458;2024-02-14T00:46:03;9.90;88.80
38488;DHT22;57384;51.986;4.458;2024-02-14T00:48:47;9.90;88.80
38488;DHT22;57384;51.986;4.458;2024-02-14T00:51:31;9.90;88.80
38488;DHT22;57384;51.986;4.458;2024-02-14T00:54:15;10.00;88.90
38488;DHT22;57384;51.986;4.458;2024-02-14T00:56:59;10.00;88.90
38488;DHT22;57384;51.986;4.458;2024-02-14T00:59:43;10.00;88.90
38488;DHT22;57384;51.986;4.458;2024-02-14T01:02:27;10.00;89.50
38488;DHT22;57384;51.986;4.458;2024-02-14T01:05:12;10.00;88.90
38488;DHT22;57384;51.986;4.458;2024-02-14T01:07:56;10.00;89.00
38488;DHT22;57384;51.986;4.458;2024-02-14T01:10:41;10.00;89.00
38488;DHT22;57384;51.986;4.458;2024-02-14T01:13:25;10.00;89.00
38488;DHT22;57384;51.986;4.458;2024-02-14T01:16:09;10.00;89.00
38488;DHT22;57384;51.986;4.458;2024-02-14T01:18:53;10.10;89.10
38488;DHT22;57384;51.986;4.458;2024-02-14T01:21:38;10.10;89.10
38488;DHT22;57384;51.986;4.458;2024-02-14T01:24:22;10.10;89.10
38488;DHT22;57384;51.986;4.458;2024-02-14T01:27:07;10.10;89.10
38488;DHT22;57384;51.986;4.458;2024-02-14T01:29:51;10.10;89.10
38488;DHT22;57384;51.986;4.458;2024-02-14T01:32:35;10.20;89.20
38488;DHT22;57384;51.986;4.458;2024-02-14T01:35:19;10.20;89.20
38488;DHT22;57384;51.986;4.458;2024-02-14T01:38:05;10.20;89.20
38488;DHT22;57384;51.986;4.458;2024-02-14T01:40:49;10.20;89.20
38488;DHT22;57384;51.986;4.458;2024-02-14T01:43:33;10.20;89.90
38488;DHT22;57384;51.986;4.458;2024-02-14T01:46:20;10.20;89.30
38488;DHT22;57384;51.986;4.458;2024-02-14T01:49:04;10.20;89.30
38488;DHT22;57384;51.986;4.458;2024-02-14T01:51:48;10.20;89.30
38488;DHT22;57384;51.986;4.458;2024-02-14T01:54:33;10.30;89.40
38488;DHT22;57384;51.986;4.458;2024-02-14T01:57:19;10.30;89.40
38488;DHT22;57384;51.986;4.458;2024-02-14T02:00:03;10.30;89.50
38488;DHT22;57384;51.986;4.458;2024-02-14T02:02:48;10.30;89.50
38488;DHT22;57384;51.986;4.458;2024-02-14T02:05:32;10.30;89.50
38488;DHT22;57384;51.986;4.458;2024-02-14T02:08:16;10.30;89.50
38488;DHT22;57384;51.986;4.458;2024-02-14T02:11:01;10.30;89.60
38488;DHT22;57384;51.986;4.458;2024-02-14T02:13:45;10.30;89.60
38488;DHT22;57384;51.986;4.458;2024-02-14T02:16:29;10.30;89.60
38488;DHT22;57384;51.986;4.458;2024-02-14T02:19:13;10.40;89.70
38488;DHT22;57384;51.986;4.458;2024-02-14T02:21:58;10.40;89.70
38488;DHT22;57384;51.986;4.458;2024-02-14T02:24:43;10.40;89.70
38488;DHT22;57384;51.986;4.458;2024-02-14T02:27:28;10.40;89.70
38488;DHT22;57384;51.986;4.458;2024-02-14T02:30:12;10.40;89.80
38488;DHT22;57384;51.986;4.458;2024-02-14T02:32:57;10.40;89.80
38488;DHT22;57384;51.986;4.458;2024-02-14T02:35:43;10.40;89.80
38488;DHT22;57384;51.986;4.458;2024-02-14T02:38:27;10.50;89.90
38488;DHT22;57384;51.986;4.458;2024-02-14T02:41:11;10.50;89.90
38488;DHT22;57384;51.986;4.458;2024-02-14T02:43:55;10.50;90.00
38488;DHT22;57384;51.986;4.458;2024-02-14T02:46:40;10.50;90.00
38488;DHT22;57384;51.986;4.458;2024-02-14T02:49:25;10.50;90.00
38488;DHT22;57384;51.986;4.458;2024-02-14T02:52:09;10.50;90.00
38488;DHT22;57384;51.986;4.458;2024-02-14T02:54:53;10.50;90.00
38488;DHT22;57384;51.986;4.458;2024-02-14T02:57:41;10.50;90.00
38488;DHT22;57384;51.986;4.458;2024-02-14T03:00:25;10.60;90.10
38488;DHT22;57384;51.986;4.458;2024-02-14T03:03:09;10.50;90.00
38488;DHT22;57384;51.986;4.458;2024-02-14T03:05:53;10.60;90.10
38488;DHT22;57384;51.986;4.458;2024-02-14T03:08:38;10.50;90.00
38488;DHT22;57384;51.986;4.458;2024-02-14T03:11:23;10.60;90.10
38488;DHT22;57384;51.986;4.458;2024-02-14T03:14:07;10.60;90.10
38488;DHT22;57384;51.986;4.458;2024-02-14T03:16:53;10.60;90.10
38488;DHT22;57384;51.986;4.458;2024-02-14T03:19:37;10.60;90.10
38488;DHT22;57384;51.986;4.458;2024-02-14T03:22:23;10.70;90.10
38488;DHT22;57384;51.986;4.458;2024-02-14T03:25:08;10.70;90.20
38488;DHT22;57384;51.986;4.458;2024-02-14T03:27:54;10.70;90.20
38488;DHT22;57384;51.986;4.458;2024-02-14T03:30:39;10.70;90.20
38488;DHT22;57384;51.986;4.458;2024-02-14T03:33:23;10.70;90.20
38488;DHT22;57384;51.986;4.458;2024-02-14T03:36:07;10.70;90.20
38488;DHT22;57384;51.986;4.458;2024-02-14T03:38:52;10.70;90.20
38488;DHT22;57384;51.986;4.458;2024-02-14T03:41:37;10.80;90.20
38488;DHT22;57384;51.986;4.458;2024-02-14T03:44:22;10.70;90.20
38488;DHT22;57384;51.986;4.458;2024-02-14T03:47:06;10.80;90.30
38488;DHT22;57384;51.986;4.458;2024-02-14T03:49:50;10.80;90.30
38488;DHT22;57384;51.986;4.458;2024-02-14T03:52:34;10.80;90.30
38488;DHT22;57384;51.986;4.458;2024-02-14T03:55:18;10.80;90.30
38488;DHT22;57384;51.986;4.458;2024-02-14T03:58:02;10.90;90.40
38488;DHT22;57384;51.986;4.458;2024-02-14T04:00:47;10.90;90.40
38488;DHT22;57384;51.986;4.458;2024-02-14T04:03:31;10.90;90.40
38488;DHT22;57384;51.986;4.458;2024-02-14T04:06:15;10.90;90.40
38488;DHT22;57384;51.986;4.458;2024-02-14T04:09:00;10.90;90.40
38488;DHT22;57384;51.986;4.458;2024-02-14T04:11:44;11.00;90.40
38488;DHT22;57384;51.986;4.458;2024-02-14T04:14:28;10.90;90.40
38488;DHT22;57384;51.986;4.458;2024-02-14T04:17:12;11.00;90.40
38488;DHT22;57384;51.986;4.458;2024-02-14T04:19:56;11.00;90.40
38488;DHT22;57384;51.986;4.458;2024-02-14T04:22:40;11.00;90.40
38488;DHT22;57384;51.986;4.458;2024-02-14T04:25:24;11.00;90.40
38488;DHT22;57384;51.986;4.458;2024-02-14T04:28:10;11.00;90.40
38488;DHT22;57384;51.986;4.458;2024-02-14T04:30:54;11.00;90.40
38488;DHT22;57384;51.986;4.458;2024-02-14T04:33:38;11.10;90.50
38488;DHT22;57384;51.986;4.458;2024-02-14T04:36:22;11.00;90.50
38488;DHT22;57384;51.986;4.458;2024-02-14T04:39:07;11.10;90.50
38488;DHT22;57384;51.986;4.458;2024-02-14T04:41:52;11.10;90.50
38488;DHT22;57384;51.986;4.458;2024-02-14T04:44:36;11.10;90.50
38488;DHT22;57384;51.986;4.458;2024-02-14T04:47:22;11.10;90.50
38488;DHT22;57384;51.986;4.458;2024-02-14T04:50:06;11.10;90.50
38488;DHT22;57384;51.986;4.458;2024-02-14T04:52:51;11.20;90.60
38488;DHT22;57384;51.986;4.458;2024-02-14T04:55:35;11.20;90.60
38488;DHT22;57384;51.986;4.458;2024-02-14T04:58:19;11.20;90.60
38488;DHT22;57384;51.986;4.458;2024-02-14T05:01:03;11.20;90.60
38488;DHT22;57384;51.986;4.458;2024-02-14T05:03:48;11.20;90.60
38488;DHT22;57384;51.986;4.458;2024-02-14T05:06:33;11.20;90.60
38488;DHT22;57384;51.986;4.458;2024-02-14T05:09:18;11.20;90.60
38488;DHT22;57384;51.986;4.458;2024-02-14T05:12:02;11.30;90.70
38488;DHT22;57384;51.986;4.458;2024-02-14T05:14:46;11.30;90.70
38488;DHT22;57384;51.986;4.458;2024-02-14T05:17:30;11.30;90.70
38488;DHT22;57384;51.986;4.458;2024-02-14T05:20:14;11.20;90.70
38488;DHT22;57384;51.986;4.458;2024-02-14T05:22:58;11.40;90.70
38488;DHT22;57384;51.986;4.458;2024-02-14T05:25:42;11.30;90.70
38488;DHT22;57384;51.986;4.458;2024-02-14T05:28:27;11.30;90.70
38488;DHT22;57384;51.986;4.458;2024-02-14T05:31:11;11.30;90.70
38488;DHT22;57384;51.986;4.458;2024-02-14T05:33:56;11.30;90.70
38488;DHT22;57384;51.986;4.458;2024-02-14T05:36:40;11.30;90.70
38488;DHT22;57384;51.986;4.458;2024-02-14T05:39:25;11.40;90.80
38488;DHT22;57384;51.986;4.458;2024-02-14T05:42:09;11.40;90.80
38488;DHT22;57384;51.986;4.458;2024-02-14T05:44:53;11.40;90.80
38488;DHT22;57384;51.986;4.458;2024-02-14T05:47:40;11.40;90.80
38488;DHT22;57384;51.986;4.458;2024-02-14T05:50:24;11.40;90.80
38488;DHT22;57384;51.986;4.458;2024-02-14T05:53:08;11.40;90.80
38488;DHT22;57384;51.986;4.458;2024-02-14T05:55:52;11.40;90.80
38488;DHT22;57384;51.986;4.458;2024-02-14T05:58:39;11.50;90.90
38488;DHT22;57384;51.986;4.458;2024-02-14T06:01:23;11.40;90.80
38488;DHT22;57384;51.986;4.458;2024-02-14T06:04:07;11.50;90.90
38488;DHT22;57384;51.986;4.458;2024-02-14T06:06:53;11.50;90.90
38488;DHT22;57384;51.986;4.458;2024-02-14T06:09:38;11.50;90.90
38488;DHT22;57384;51.986;4.458;2024-02-14T06:12:22;11.50;90.90
38488;DHT22;57384;51.986;4.458;2024-02-14T06:15:06;11.50;90.90
38488;DHT22;57384;51.986;4.458;2024-02-14T06:17:51;11.50;90.90
38488;DHT22;57384;51.986;4.458;2024-02-14T06:20:35;11.50;90.90
38488;DHT22;57384;51.986;4.458;2024-02-14T06:23:19;11.50;90.90
38488;DHT22;57384;51.986;4.458;2024-02-14T06:26:04;11.50;90.90
38488;DHT22;57384;51.986;4.458;2024-02-14T06:28:48;11.60;91.00
38488;DHT22;57384;51.986;4.458;2024-02-14T06:31:32;11.50;91.00
38488;DHT22;57384;51.986;4.458;2024-02-14T06:34:16;11.60;91.00
38488;DHT22;57384;51.986;4.458;2024-02-14T06:37:00;11.60;91.00
38488;DHT22;57384;51.986;4.458;2024-02-14T06:39:44;11.60;91.00
38488;DHT22;57384;51.986;4.458;2024-02-14T06:42:29;11.60;91.00
38488;DHT22;57384;51.986;4.458;2024-02-14T06:45:14;11.60;91.00
38488;DHT22;57384;51.986;4.458;2024-02-14T06:47:59;11.60;91.00
38488;DHT22;57384;51.986;4.458;2024-02-14T06:50:43;11.60;91.00
38488;DHT22;57384;51.986;4.458;2024-02-14T06:53:27;11.60;91.00
38488;DHT22;57384;51.986;4.458;2024-02-14T06:56:11;11.60;91.00
38488;DHT22;57384;51.986;4.458;2024-02-14T06:58:57;11.60;91.00
38488;DHT22;57384;51.986;4.458;2024-02-14T07:01:41;11.60;91.00
38488;DHT22;57384;51.986;4.458;2024-02-14T07:04:25;11.60;91.00
38488;DHT22;57384;51.986;4.458;2024-02-14T07:07:09;11.70;91.10
38488;DHT22;57384;51.986;4.458;2024-02-14T07:09:54;11.60;91.10
38488;DHT22;57384;51.986;4.458;2024-02-14T07:12:39;11.60;91.10
38488;DHT22;57384;51.986;4.458;2024-02-14T07:15:23;11.60;91.10
38488;DHT22;57384;51.986;4.458;2024-02-14T07:18:07;11.70;91.10
38488;DHT22;57384;51.986;4.458;2024-02-14T07:20:51;11.60;91.10
38488;DHT22;57384;51.986;4.458;2024-02-14T07:23:35;11.70;91.10
38488;DHT22;57384;51.986;4.458;2024-02-14T07:26:19;11.70;91.10
38488;DHT22;57384;51.986;4.458;2024-02-14T07:29:03;11.70;91.10
38488;DHT22;57384;51.986;4.458;2024-02-14T07:31:47;11.70;91.10
38488;DHT22;57384;51.986;4.458;2024-02-14T07:34:31;11.70;91.10
38488;DHT22;57384;51.986;4.458;2024-02-14T07:37:15;11.70;91.10
38488;DHT22;57384;51.986;4.458;2024-02-14T07:39:59;11.70;91.10
38488;DHT22;57384;51.986;4.458;2024-02-14T07:42:43;11.70;91.10
38488;DHT22;57384;51.986;4.458;2024-02-14T07:45:27;11.70;91.20
38488;DHT22;57384;51.986;4.458;2024-02-14T07:48:12;11.70;91.20
38488;DHT22;57384;51.986;4.458;2024-02-14T07:50:56;11.70;91.20
38488;DHT22;57384;51.986;4.458;2024-02-14T07:53:40;11.70;91.20
38488;DHT22;57384;51.986;4.458;2024-02-14T07:56:25;11.70;91.20
38488;DHT22;57384;51.986;4.458;2024-02-14T07:59:11;11.80;91.20
38488;DHT22;57384;51.986;4.458;2024-02-14T08:01:55;11.70;91.20
38488;DHT22;57384;51.986;4.458;2024-02-14T08:04:39;11.70;91.20
38488;DHT22;57384;51.986;4.458;2024-02-14T08:07:23;11.70;91.20
38488;DHT22;57384;51.986;4.458;2024-02-14T08:10:08;11.80;91.20
38488;DHT22;57384;51.986;4.458;2024-02-14T08:12:52;11.70;91.20
38488;DHT22;57384;51.986;4.458;2024-02-14T08:15:36;11.80;91.20
38488;DHT22;57384;51.986;4.458;2024-02-14T08:18:21;11.80;91.20
38488;DHT22;57384;51.986;4.458;2024-02-14T08:21:07;11.90;91.20
38488;DHT22;57384;51.986;4.458;2024-02-14T08:23:52;11.80;91.20
38488;DHT22;57384;51.986;4.458;2024-02-14T08:26:36;11.80;91.30
38488;DHT22;57384;51.986;4.458;2024-02-14T08:29:25;11.80;91.20
38488;DHT22;57384;51.986;4.458;2024-02-14T08:32:09;11.80;91.20
38488;DHT22;57384;51.986;4.458;2024-02-14T08:34:54;11.80;91.20
38488;DHT22;57384;51.986;4.458;2024-02-14T08:37:37;11.80;91.20
38488;DHT22;57384;51.986;4.458;2024-02-14T08:40:25;11.80;91.20
38488;DHT22;57384;51.986;4.458;2024-02-14T08:43:09;11.80;91.20
38488;DHT22;57384;51.986;4.458;2024-02-14T08:45:54;11.80;91.20
38488;DHT22;57384;51.986;4.458;2024-02-14T08:48:38;11.80;91.20
38488;DHT22;57384;51.986;4.458;2024-02-14T08:51:22;11.80;91.20
38488;DHT22;57384;51.986;4.458;2024-02-14T08:54:09;11.80;91.20
38488;DHT22;57384;51.986;4.458;2024-02-14T08:56:53;11.90;91.30
38488;DHT22;57384;51.986;4.458;2024-02-14T08:59:38;11.90;91.20
38488;DHT22;57384;51.986;4.458;2024-02-14T09:02:22;11.90;91.20
38488;DHT22;57384;51.986;4.458;2024-02-14T09:05:06;11.90;91.20
38488;DHT22;57384;51.986;4.458;2024-02-14T09:07:51;11.90;91.20
38488;DHT22;57384;51.986;4.458;2024-02-14T09:10:36;11.90;91.30
38488;DHT22;57384;51.986;4.458;2024-02-14T09:13:20;11.90;91.20
38488;DHT22;57384;51.986;4.458;2024-02-14T09:16:04;11.90;91.30
38488;DHT22;57384;51.986;4.458;2024-02-14T09:18:51;11.90;91.20
38488;DHT22;57384;51.986;4.458;2024-02-14T09:21:35;12.00;91.20
38488;DHT22;57384;51.986;4.458;2024-02-14T09:24:19;12.00;91.20
38488;DHT22;57384;51.986;4.458;2024-02-14T09:27:04;12.00;91.20
38488;DHT22;57384;51.986;4.458;2024-02-14T09:29:48;12.00;91.20
38488;DHT22;57384;51.986;4.458;2024-02-14T09:32:33;12.00;91.20
38488;DHT22;57384;51.986;4.458;2024-02-14T09:35:17;12.00;91.30
38488;DHT22;57384;51.986;4.458;2024-02-14T09:38:02;12.00;91.20
38488;DHT22;57384;51.986;4.458;2024-02-14T09:40:46;12.00;91.30
38488;DHT22;57384;51.986;4.458;2024-02-14T09:43:38;12.00;91.20
38488;DHT22;57384;51.986;4.458;2024-02-14T09:46:24;12.10;91.30
38488;DHT22;57384;51.986;4.458;2024-02-14T09:49:09;12.10;91.30
38488;DHT22;57384;51.986;4.458;2024-02-14T09:51:53;12.10;91.30
38488;DHT22;57384;51.986;4.458;2024-02-14T09:54:39;12.10;91.30
38488;DHT22;57384;51.986;4.458;2024-02-14T09:57:24;12.10;91.30
38488;DHT22;57384;51.986;4.458;2024-02-14T10:00:12;12.10;91.20
38488;DHT22;57384;51.986;4.458;2024-02-14T10:03:04;12.10;91.30
38488;DHT22;57384;51.986;4.458;2024-02-14T10:05:49;12.20;91.30
38488;DHT22;57384;51.986;4.458;2024-02-14T10:08:33;12.20;91.30
38488;DHT22;57384;51.986;4.458;2024-02-14T10:11:19;12.20;91.30
38488;DHT22;57384;51.986;4.458;2024-02-14T10:14:06;12.30;91.30
38488;DHT22;57384;51.986;4.458;2024-02-14T10:16:50;12.30;91.30
38488;DHT22;57384;51.986;4.458;2024-02-14T10:19:36;12.20;91.20
38488;DHT22;57384;51.986;4.458;2024-02-14T10:22:20;12.30;91.30
38488;DHT22;57384;51.986;4.458;2024-02-14T10:25:05;12.40;91.30
38488;DHT22;57384;51.986;4.458;2024-02-14T10:27:49;12.30;91.30
38488;DHT22;57384;51.986;4.458;2024-02-14T10:30:36;12.30;91.30
38488;DHT22;57384;51.986;4.458;2024-02-14T10:33:21;12.40;91.30
38488;DHT22;57384;51.986;4.458;2024-02-14T10:36:07;12.40;91.30
38488;DHT22;57384;51.986;4.458;2024-02-14T10:38:52;12.50;91.30
38488;DHT22;57384;51.986;4.458;2024-02-14T10:41:37;12.50;91.30
38488;DHT22;57384;51.986;4.458;2024-02-14T10:44:21;12.50;91.30
38488;DHT22;57384;51.986;4.458;2024-02-14T10:47:08;12.50;91.40
38488;DHT22;57384;51.986;4.458;2024-02-14T10:50:01;12.50;91.30
38488;DHT22;57384;51.986;4.458;2024-02-14T10:52:46;12.60;91.40
38488;DHT22;57384;51.986;4.458;2024-02-14T10:55:33;12.60;91.30
38488;DHT22;57384;51.986;4.458;2024-02-14T10:58:18;12.70;91.30
38488;DHT22;57384;51.986;4.458;2024-02-14T11:01:03;12.60;91.30
38488;DHT22;57384;51.986;4.458;2024-02-14T11:03:47;12.70;91.30
38488;DHT22;57384;51.986;4.458;2024-02-14T11:06:31;12.70;91.30
38488;DHT22;57384;51.986;4.458;2024-02-14T11:09:15;12.80;91.40
38488;DHT22;57384;51.986;4.458;2024-02-14T11:12:03;12.70;91.40
38488;DHT22;57384;51.986;4.458;2024-02-14T11:14:47;12.80;91.40
38488;DHT22;57384;51.986;4.458;2024-02-14T11:17:31;12.80;91.40
38488;DHT22;57384;51.986;4.458;2024-02-14T11:20:31;12.80;91.30
38488;DHT22;57384;51.986;4.458;2024-02-14T11:23:21;12.80;91.40
38488;DHT22;57384;51.986;4.458;2024-02-14T11:26:06;12.90;91.40
38488;DHT22;57384;51.986;4.458;2024-02-14T11:28:59;12.90;91.30
38488;DHT22;57384;51.986;4.458;2024-02-14T11:31:47;12.90;91.40
38488;DHT22;57384;51.986;4.458;2024-02-14T11:34:31;12.90;91.40
38488;DHT22;57384;51.986;4.458;2024-02-14T11:37:19;13.00;91.40
38488;DHT22;57384;51.986;4.458;2024-02-14T11:40:05;13.00;91.40
38488;DHT22;57384;51.986;4.458;2024-02-14T11:42:50;13.00;91.40
38488;DHT22;57384;51.986;4.458;2024-02-14T11:45:34;13.00;91.40
38488;DHT22;57384;51.986;4.458;2024-02-14T11:48:21;13.00;91.40
38488;DHT22;57384;51.986;4.458;2024-02-14T11:51:05;13.00;91.40
38488;DHT22;57384;51.986;4.458;2024-02-14T11:53:49;13.10;91.40
38488;DHT22;57384;51.986;4.458;2024-02-14T11:56:37;13.10;91.40
38488;DHT22;57384;51.986;4.458;2024-02-14T11:59:22;13.10;91.40
38488;DHT22;57384;51.986;4.458;2024-02-14T12:02:06;13.10;91.40
38488;DHT22;57384;51.986;4.458;2024-02-14T12:04:50;13.10;91.60
38488;DHT22;57384;51.986;4.458;2024-02-14T12:07:34;13.10;91.40
38488;DHT22;57384;51.986;4.458;2024-02-14T12:10:20;13.10;91.40
38488;DHT22;57384;51.986;4.458;2024-02-14T12:13:09;13.10;91.40
38488;DHT22;57384;51.986;4.458;2024-02-14T12:15:54;13.20;91.40
38488;DHT22;57384;51.986;4.458;2024-02-14T12:18:38;13.10;91.40
38488;DHT22;57384;51.986;4.458;2024-02-14T12:21:24;13.20;91.40
38488;DHT22;57384;51.986;4.458;2024-02-14T12:24:09;13.20;91.40
38488;DHT22;57384;51.986;4.458;2024-02-14T12:26:54;13.20;91.40
38488;DHT22;57384;51.986;4.458;2024-02-14T12:29:38;13.20;91.40
38488;DHT22;57384;51.986;4.458;2024-02-14T12:32:23;13.30;91.40
38488;DHT22;57384;51.986;4.458;2024-02-14T12:35:07;13.20;91.40
38488;DHT22;57384;51.986;4.458;2024-02-14T12:37:52;13.30;91.40
38488;DHT22;57384;51.986;4.458;2024-02-14T12:40:36;13.30;91.40
38488;DHT22;57384;51.986;4.458;2024-02-14T12:43:21;13.30;91.40
38488;DHT22;57384;51.986;4.458;2024-02-14T12:46:05;13.30;91.40
38488;DHT22;57384;51.986;4.458;2024-02-14T12:48:49;13.30;91.40
38488;DHT22;57384;51.986;4.458;2024-02-14T12:51:35;13.30;91.40
38488;DHT22;57384;51.986;4.458;2024-02-14T12:54:20;13.30;91.40
38488;DHT22;57384;51.986;4.458;2024-02-14T12:57:04;13.30;91.40
38488;DHT22;57384;51.986;4.458;2024-02-14T12:59:48;13.30;91.40
38488;DHT22;57384;51.986;4.458;2024-02-14T13:02:32;13.40;91.40
38488;DHT22;57384;51.986;4.458;2024-02-14T13:05:16;13.30;91.40
38488;DHT22;57384;51.986;4.458;2024-02-14T13:08:00;13.40;91.40
38488;DHT22;57384;51.986;4.458;2024-02-14T13:10:45;13.40;91.40
38488;DHT22;57384;51.986;4.458;2024-02-14T13:13:29;13.40;91.40
38488;DHT22;57384;51.986;4.458;2024-02-14T13:16:13;13.40;91.40
38488;DHT22;57384;51.986;4.458;2024-02-14T13:18:57;13.40;91.40
38488;DHT22;57384;51.986;4.458;2024-02-14T13:21:41;13.30;91.40
38488;DHT22;57384;51.986;4.458;2024-02-14T13:24:28;13.30;91.40
38488;DHT22;57384;51.986;4.458;2024-02-14T13:27:12;13.40;91.50
38488;DHT22;57384;51.986;4.458;2024-02-14T13:29:56;13.40;91.50
38488;DHT22;57384;51.986;4.458;2024-02-14T13:32:40;13.40;91.50
38488;DHT22;57384;51.986;4.458;2024-02-14T13:35:24;13.40;91.50
38488;DHT22;57384;51.986;4.458;2024-02-14T13:38:08;13.40;91.50
38488;DHT22;57384;51.986;4.458;2024-02-14T13:40:53;13.40;91.50
38488;DHT22;57384;51.986;4.458;2024-02-14T13:43:37;13.40;91.50
38488;DHT22;57384;51.986;4.458;2024-02-14T13:46:21;13.40;91.50
38488;DHT22;57384;51.986;4.458;2024-02-14T13:49:05;13.40;91.50
38488;DHT22;57384;51.986;4.458;2024-02-14T13:51:50;13.40;91.50
38488;DHT22;57384;51.986;4.458;2024-02-14T13:54:34;13.50;91.50
38488;DHT22;57384;51.986;4.458;2024-02-14T13:57:18;13.40;91.50
38488;DHT22;57384;51.986;4.458;2024-02-14T14:00:03;13.40;91.50
38488;DHT22;57384;51.986;4.458;2024-02-14T14:02:48;13.50;91.50
38488;DHT22;57384;51.986;4.458;2024-02-14T14:05:32;13.50;91.50
38488;DHT22;57384;51.986;4.458;2024-02-14T14:08:17;13.50;91.50
38488;DHT22;57384;51.986;4.458;2024-02-14T14:11:05;13.50;91.50
38488;DHT22;57384;51.986;4.458;2024-02-14T14:13:49;13.50;91.50
38488;DHT22;57384;51.986;4.458;2024-02-14T14:16:34;13.50;91.50
38488;DHT22;57384;51.986;4.458;2024-02-14T14:19:18;13.50;91.50
38488;DHT22;57384;51.986;4.458;2024-02-14T14:22:07;13.50;91.50
38488;DHT22;57384;51.986;4.458;2024-02-14T14:24:51;13.50;91.50
38488;DHT22;57384;51.986;4.458;2024-02-14T14:27:35;13.50;91.50
38488;DHT22;57384;51.986;4.458;2024-02-14T14:30:19;13.50;91.50
38488;DHT22;57384;51.986;4.458;2024-02-14T14:33:03;13.50;91.50
38488;DHT22;57384;51.986;4.458;2024-02-14T14:35:48;13.50;91.50
38488;DHT22;57384;51.986;4.458;2024-02-14T14:38:33;13.50;91.50
38488;DHT22;57384;51.986;4.458;2024-02-14T14:41:17;13.50;91.50
38488;DHT22;57384;51.986;4.458;2024-02-14T14:44:01;13.60;91.60
38488;DHT22;57384;51.986;4.458;2024-02-14T14:46:45;13.60;91.60
38488;DHT22;57384;51.986;4.458;2024-02-14T14:49:29;13.50;91.60
38488;DHT22;57384;51.986;4.458;2024-02-14T14:52:15;13.50;91.60
38488;DHT22;57384;51.986;4.458;2024-02-14T14:54:59;13.50;91.60
38488;DHT22;57384;51.986;4.458;2024-02-14T14:57:43;13.60;91.60
38488;DHT22;57384;51.986;4.458;2024-02-14T15:00:27;13.60;91.60
38488;DHT22;57384;51.986;4.458;2024-02-14T15:03:11;13.60;91.60
38488;DHT22;57384;51.986;4.458;2024-02-14T15:05:55;13.60;91.60
38488;DHT22;57384;51.986;4.458;2024-02-14T15:08:39;13.50;91.60
38488;DHT22;57384;51.986;4.458;2024-02-14T15:11:23;13.50;91.60
38488;DHT22;57384;51.986;4.458;2024-02-14T15:14:07;13.50;91.60
38488;DHT22;57384;51.986;4.458;2024-02-14T15:16:52;13.50;91.60
38488;DHT22;57384;51.986;4.458;2024-02-14T15:19:36;13.50;91.80
38488;DHT22;57384;51.986;4.458;2024-02-14T15:22:20;13.50;91.60
38488;DHT22;57384;51.986;4.458;2024-02-14T15:25:04;13.60;91.60
38488;DHT22;57384;51.986;4.458;2024-02-14T15:27:49;13.60;91.60
38488;DHT22;57384;51.986;4.458;2024-02-14T15:30:33;13.50;91.60
38488;DHT22;57384;51.986;4.458;2024-02-14T15:33:17;13.60;91.60
38488;DHT22;57384;51.986;4.458;2024-02-14T15:36:01;13.50;91.50
38488;DHT22;57384;51.986;4.458;2024-02-14T15:38:45;13.60;91.60
38488;DHT22;57384;51.986;4.458;2024-02-14T15:41:29;13.50;91.50
38488;DHT22;57384;51.986;4.458;2024-02-14T15:44:16;13.50;91.50
38488;DHT22;57384;51.986;4.458;2024-02-14T15:47:00;13.50;91.50
38488;DHT22;57384;51.986;4.458;2024-02-14T15:49:44;13.50;91.80
38488;DHT22;57384;51.986;4.458;2024-02-14T15:52:30;13.50;91.50
38488;DHT22;57384;51.986;4.458;2024-02-14T15:55:14;13.50;91.50
38488;DHT22;57384;51.986;4.458;2024-02-14T15:57:58;13.50;91.50
38488;DHT22;57384;51.986;4.458;2024-02-14T16:00:44;13.50;91.50
38488;DHT22;57384;51.986;4.458;2024-02-14T16:03:30;13.50;91.60
38488;DHT22;57384;51.986;4.458;2024-02-14T16:06:14;13.50;91.60
38488;DHT22;57384;51.986;4.458;2024-02-14T16:08:58;13.50;91.50
38488;DHT22;57384;51.986;4.458;2024-02-14T16:11:42;13.50;91.50
38488;DHT22;57384;51.986;4.458;2024-02-14T16:14:26;13.50;91.50
38488;DHT22;57384;51.986;4.458;2024-02-14T16:17:13;13.50;91.50
38488;DHT22;57384;51.986;4.458;2024-02-14T16:19:57;13.50;91.50
38488;DHT22;57384;51.986;4.458;2024-02-14T16:22:41;13.50;91.50
38488;DHT22;57384;51.986;4.458;2024-02-14T16:25:26;13.50;91.50
38488;DHT22;57384;51.986;4.458;2024-02-14T16:28:10;13.40;91.50
38488;DHT22;57384;51.986;4.458;2024-02-14T16:30:54;13.50;91.50
38488;DHT22;57384;51.986;4.458;2024-02-14T16:33:38;13.50;91.50
38488;DHT22;57384;51.986;4.458;2024-02-14T16:36:22;13.50;91.50
38488;DHT22;57384;51.986;4.458;2024-02-14T16:39:06;13.40;91.50
38488;DHT22;57384;51.986;4.458;2024-02-14T16:41:50;13.50;91.50
38488;DHT22;57384;51.986;4.458;2024-02-14T16:44:35;13.50;91.50
38488;DHT22;57384;51.986;4.458;2024-02-14T16:47:19;13.50;91.50
38488;DHT22;57384;51.986;4.458;2024-02-14T16:50:03;13.50;91.50
38488;DHT22;57384;51.986;4.458;2024-02-14T16:52:48;13.40;91.50
38488;DHT22;57384;51.986;4.458;2024-02-14T16:55:32;13.40;91.50
38488;DHT22;57384;51.986;4.458;2024-02-14T16:58:16;13.40;91.50
38488;DHT22;57384;51.986;4.458;2024-02-14T17:01:00;13.40;91.50
38488;DHT22;57384;51.986;4.458;2024-02-14T17:03:46;13.40;91.50
38488;DHT22;57384;51.986;4.458;2024-02-14T17:06:30;13.40;91.50
38488;DHT22;57384;51.986;4.458;2024-02-14T17:09:14;13.40;91.50
38488;DHT22;57384;51.986;4.458;2024-02-14T17:11:58;13.40;91.50
38488;DHT22;57384;51.986;4.458;2024-02-14T17:14:43;13.40;91.50
38488;DHT22;57384;51.986;4.458;2024-02-14T17:17:27;13.40;91.50
38488;DHT22;57384;51.986;4.458;2024-02-14T17:20:11;13.40;91.50
38488;DHT22;57384;51.986;4.458;2024-02-14T17:22:55;13.40;91.40